createdAt,value
2019-01-20T00:00:08.141Z,7.92
2019-01-20T00:02:44.030Z,7.67
2019-01-20T00:05:14.216Z,7.90
2019-01-20T00:07:43.108Z,9.45
2019-01-20T00:10:13.272Z,9.18
2019-01-20T00:12:43.600Z,9.55
2019-01-20T00:15:15.483Z,8.43
2019-01-20T00:17:44.345Z,8.43
2019-01-20T00:20:13.467Z,8.30
2019-01-20T00:22:49.440Z,9.00
2019-01-20T00:25:18.283Z,8.65
2019-01-20T00:27:47.129Z,8.48
2019-01-20T00:30:17.645Z,7.83
2019-01-20T00:32:46.406Z,7.90
2019-01-20T00:35:51.468Z,7.28
2019-01-20T00:38:20.266Z,7.33
2019-01-20T00:40:49.026Z,8.13
2019-01-20T00:43:57.195Z,6.95
2019-01-20T00:46:26.009Z,7.40
2019-01-20T00:48:55.629Z,7.95
2019-01-20T00:51:33.784Z,6.87
2019-01-20T00:54:02.611Z,7.33
2019-01-20T00:56:33.694Z,7.20
2019-01-20T00:59:09.810Z,6.83
2019-01-20T01:01:38.873Z,6.95
2019-01-20T01:04:35.678Z,7.05
2019-01-20T01:07:05.216Z,7.15
2019-01-20T01:09:34.326Z,6.90
2019-01-20T01:12:03.647Z,8.23
2019-01-20T01:18:04.455Z,7.83
2019-01-20T01:20:33.258Z,7.33
2019-01-20T01:23:32.471Z,7.25
2019-01-20T01:26:01.315Z,7.33
2019-01-20T01:28:30.129Z,7.42
2019-01-20T01:31:42.580Z,7.12
2019-01-20T01:34:11.422Z,7.97
2019-01-20T01:36:40.273Z,7.05
2019-01-20T01:39:10.231Z,7.85
2019-01-20T01:41:39.362Z,8.18
2019-01-20T01:44:08.472Z,7.95
2019-01-20T01:46:43.444Z,7.75
2019-01-20T01:49:12.284Z,7.72
2019-01-20T01:52:05.230Z,8.60
2019-01-20T01:54:34.054Z,7.60
2019-01-20T01:57:02.962Z,7.75
2019-01-20T01:59:32.015Z,6.87
2019-01-20T02:02:00.853Z,7.85
2019-01-20T02:04:29.704Z,7.25
2019-01-20T02:06:58.576Z,7.80
2019-01-20T02:09:27.392Z,8.48
2019-01-20T02:11:59.320Z,7.42
2019-01-20T02:14:28.170Z,7.10
2019-01-20T02:16:56.982Z,8.20
2019-01-20T02:19:25.746Z,8.88
2019-01-20T02:21:54.487Z,7.40
2019-01-20T02:24:23.337Z,8.20
2019-01-20T02:26:52.149Z,8.13
2019-01-20T02:29:20.921Z,7.78
2019-01-20T02:31:50.824Z,8.73
2019-01-20T02:34:19.652Z,8.35
2019-01-20T02:36:48.416Z,7.12
2019-01-20T02:39:17.237Z,7.33
2019-01-20T02:41:46.059Z,8.53
2019-01-20T02:44:18.057Z,8.30
2019-01-20T02:46:46.915Z,8.05
2019-01-20T02:49:15.765Z,8.30
2019-01-20T02:51:44.828Z,7.90
2019-01-20T02:54:13.622Z,8.63
2019-01-20T02:56:42.470Z,8.50
2019-01-20T02:59:11.278Z,7.78
2019-01-20T03:01:40.568Z,9.00
2019-01-20T03:04:09.326Z,8.18
2019-01-20T03:06:39.994Z,8.35
2019-01-20T03:09:09.101Z,8.08
2019-01-20T03:11:37.897Z,8.08
2019-01-20T03:14:06.829Z,7.50
2019-01-20T03:16:35.882Z,7.62
2019-01-20T03:19:05.540Z,8.05
2019-01-20T03:21:34.393Z,8.55
2019-01-20T03:24:03.504Z,8.23
2019-01-20T03:26:32.220Z,8.45
2019-01-20T03:29:01.081Z,9.20
2019-01-20T03:31:29.903Z,10.00
2019-01-20T03:33:58.806Z,10.68
2019-01-20T03:36:28.570Z,11.88
2019-01-20T03:38:57.393Z,10.48
2019-01-20T03:41:26.171Z,9.78
2019-01-20T03:43:55.298Z,10.03
2019-01-20T03:46:24.361Z,10.28
2019-01-20T03:48:53.161Z,11.50
2019-01-20T03:51:22.008Z,9.93
2019-01-20T03:53:52.205Z,10.68
2019-01-20T03:56:21.087Z,9.35
2019-01-20T03:58:49.834Z,10.40
2019-01-20T04:01:18.692Z,9.25
2019-01-20T04:03:47.576Z,8.50
2019-01-20T04:06:19.168Z,10.55
2019-01-20T04:08:48.476Z,9.93
2019-01-20T04:11:17.360Z,8.75
2019-01-20T04:13:46.173Z,9.08
2019-01-20T04:16:14.947Z,10.88
2019-01-20T04:18:43.992Z,10.10
2019-01-20T04:21:12.736Z,8.48
2019-01-20T04:23:41.604Z,10.28
2019-01-20T04:26:10.522Z,9.40
2019-01-20T04:28:39.461Z,9.45
2019-01-20T04:31:08.334Z,8.68
2019-01-20T04:33:37.544Z,8.28
2019-01-20T04:36:06.385Z,8.50
2019-01-20T04:38:35.217Z,8.45
2019-01-20T04:41:05.570Z,9.25
2019-01-20T04:43:34.351Z,8.70
2019-01-20T04:46:03.127Z,7.85
2019-01-20T04:48:32.146Z,7.67
2019-01-20T04:51:02.850Z,7.42
2019-01-20T04:53:31.751Z,7.87
2019-01-20T04:56:00.491Z,7.97
2019-01-20T04:58:29.578Z,8.63
2019-01-20T05:00:58.432Z,8.53
2019-01-20T05:03:27.196Z,7.83
2019-01-20T05:05:56.160Z,7.33
2019-01-20T05:08:25.168Z,9.15
2019-01-20T05:10:54.024Z,7.05
2019-01-20T05:13:22.788Z,8.95
2019-01-20T05:15:51.599Z,8.55
2019-01-20T05:18:20.661Z,8.35
2019-01-20T05:20:49.506Z,8.55
2019-01-20T05:23:19.715Z,8.08
2019-01-20T05:25:48.507Z,7.97
2019-01-20T05:28:18.103Z,8.03
2019-01-20T05:30:46.918Z,8.35
2019-01-20T05:33:17.504Z,8.35
2019-01-20T05:35:46.396Z,8.75
2019-01-20T05:38:15.957Z,7.87
2019-01-20T05:40:45.075Z,7.72
2019-01-20T05:43:13.920Z,8.48
2019-01-20T05:45:43.145Z,8.03
2019-01-20T05:48:13.757Z,7.97
2019-01-20T05:50:42.463Z,7.22
2019-01-20T05:53:11.260Z,7.83
2019-01-20T05:55:40.162Z,8.20
2019-01-20T05:58:09.009Z,7.42
2019-01-20T06:00:37.885Z,7.10
2019-01-20T06:03:07.056Z,6.90
2019-01-20T06:05:35.890Z,6.05
2019-01-20T06:08:04.854Z,6.78
2019-01-20T06:10:33.949Z,7.42
2019-01-20T06:13:03.149Z,6.95
2019-01-20T06:15:31.982Z,6.50
2019-01-20T06:18:00.689Z,6.60
2019-01-20T06:20:29.838Z,7.03
2019-01-20T06:22:58.671Z,7.70
2019-01-20T06:25:27.425Z,7.17
2019-01-20T06:27:56.185Z,7.53
2019-01-20T06:30:29.740Z,7.22
2019-01-20T06:32:58.503Z,7.80
2019-01-20T06:35:27.268Z,6.83
2019-01-20T06:37:59.230Z,7.35
2019-01-20T06:40:28.101Z,7.15
2019-01-20T06:43:02.083Z,7.70
2019-01-20T06:45:28.648Z,7.67
2019-01-20T06:47:57.479Z,6.85
2019-01-20T06:50:26.291Z,7.58
2019-01-20T06:52:55.099Z,6.95
2019-01-20T06:55:23.817Z,7.53
2019-01-20T06:57:52.580Z,7.67
2019-01-20T07:00:22.971Z,7.05
2019-01-20T07:02:51.977Z,7.00
2019-01-20T07:05:21.010Z,7.80
2019-01-20T07:07:50.046Z,7.72
2019-01-20T07:10:20.975Z,7.50
2019-01-20T07:12:49.899Z,7.62
2019-01-20T07:15:21.173Z,7.95
2019-01-20T07:17:50.072Z,7.70
2019-01-20T07:20:20.350Z,7.67
2019-01-20T07:22:50.589Z,7.67
2019-01-20T07:25:19.659Z,7.72
2019-01-20T07:27:48.787Z,7.17
2019-01-20T07:30:19.521Z,7.35
2019-01-20T07:32:48.693Z,7.25
2019-01-20T07:35:22.125Z,6.55
2019-01-20T07:37:51.099Z,6.67
2019-01-20T07:40:21.817Z,8.03
2019-01-20T07:42:52.668Z,7.45
2019-01-20T07:45:23.678Z,8.55
2019-01-20T07:47:57.120Z,7.78
2019-01-20T07:50:26.878Z,9.15
2019-01-20T07:52:55.697Z,8.98
2019-01-20T07:55:24.692Z,9.40
2019-01-20T07:57:53.442Z,9.23
2019-01-20T08:00:24.412Z,9.20
2019-01-20T08:02:53.430Z,9.28
2019-01-20T08:05:25.232Z,9.18
2019-01-20T08:07:54.103Z,8.55
2019-01-20T08:10:25.250Z,9.93
2019-01-20T08:12:54.051Z,9.23
2019-01-20T08:15:23.066Z,10.30
2019-01-20T08:17:51.952Z,9.75
2019-01-20T08:20:22.491Z,8.35
2019-01-20T08:22:51.740Z,9.10
2019-01-20T08:25:21.272Z,8.98
2019-01-20T08:27:56.260Z,9.33
2019-01-20T08:30:26.391Z,10.28
2019-01-20T08:32:55.332Z,9.00
2019-01-20T08:35:27.178Z,9.50
2019-01-20T08:37:56.027Z,9.88
2019-01-20T08:40:27.354Z,10.10
2019-01-20T08:42:59.063Z,10.93
2019-01-20T08:45:45.553Z,10.28
2019-01-20T08:48:17.521Z,9.43
2019-01-20T08:50:46.588Z,10.50
2019-01-20T08:53:15.810Z,10.00
2019-01-20T08:55:45.535Z,9.53
2019-01-20T08:58:14.522Z,9.70
2019-01-20T09:00:45.933Z,8.80
2019-01-20T09:03:16.812Z,8.40
2019-01-20T09:05:45.779Z,9.00
2019-01-20T09:08:15.143Z,9.45
2019-01-20T09:10:43.986Z,10.18
2019-01-20T09:13:13.149Z,8.40
2019-01-20T09:15:42.459Z,10.32
2019-01-20T09:18:11.304Z,8.20
2019-01-20T09:20:40.090Z,10.72
2019-01-20T09:23:11.655Z,10.15
2019-01-20T09:25:40.373Z,8.58
2019-01-20T09:28:11.172Z,9.50
2019-01-20T09:30:41.556Z,9.18
2019-01-20T09:33:12.668Z,9.95
2019-01-20T09:35:41.516Z,10.08
2019-01-20T09:38:11.750Z,12.00
2019-01-20T09:40:41.819Z,11.57
2019-01-20T09:43:10.730Z,10.38
2019-01-20T09:45:40.616Z,9.93
2019-01-20T09:48:11.377Z,9.20
2019-01-20T09:50:41.114Z,9.13
2019-01-20T09:53:10.067Z,9.30
2019-01-20T09:55:39.521Z,10.05
2019-01-20T09:58:08.416Z,9.18
2019-01-20T10:00:37.468Z,8.40
2019-01-20T10:03:08.232Z,8.90
2019-01-20T10:05:37.366Z,9.18
2019-01-20T10:08:06.617Z,10.90
2019-01-20T10:10:35.529Z,10.85
2019-01-20T10:13:13.380Z,11.30
2019-01-20T10:15:41.896Z,10.13
2019-01-20T10:18:13.247Z,10.50
2019-01-20T10:20:56.282Z,10.43
2019-01-20T10:23:14.006Z,10.65
2019-01-20T10:25:42.737Z,10.65
2019-01-20T10:28:11.800Z,10.35
2019-01-20T10:30:40.738Z,11.53
2019-01-20T10:33:19.796Z,10.30
2019-01-20T10:35:50.219Z,10.58
2019-01-20T10:38:23.534Z,9.38
2019-01-20T10:40:54.624Z,9.65
2019-01-20T10:43:24.435Z,9.58
2019-01-20T10:45:53.291Z,10.70
2019-01-20T10:48:28.973Z,10.58
2019-01-20T10:51:00.692Z,10.60
2019-01-20T10:53:29.898Z,9.73
2019-01-20T10:55:59.307Z,10.00
2019-01-20T10:58:28.346Z,10.13
2019-01-20T11:00:57.112Z,10.23
2019-01-20T11:03:26.969Z,10.03
2019-01-20T11:05:55.721Z,9.30
2019-01-20T11:08:26.033Z,9.48
2019-01-20T11:10:55.334Z,10.03
2019-01-20T11:13:27.913Z,10.48
2019-01-20T11:15:58.869Z,8.58
2019-01-20T11:18:28.264Z,10.88
2019-01-20T11:20:57.098Z,11.97
2019-01-20T11:23:30.549Z,12.43
2019-01-20T11:26:03.001Z,10.43
2019-01-20T11:28:40.678Z,9.73
2019-01-20T11:31:09.517Z,8.70
2019-01-20T11:33:50.211Z,8.45
2019-01-20T11:36:20.627Z,8.68
2019-01-20T11:38:54.056Z,8.50
2019-01-20T11:41:22.799Z,9.50
2019-01-20T11:43:51.972Z,8.78
2019-01-20T11:46:20.970Z,8.55
2019-01-20T11:48:51.794Z,9.78
2019-01-20T11:51:26.637Z,8.88
2019-01-20T11:53:55.544Z,8.15
2019-01-20T11:56:24.484Z,9.03
2019-01-20T11:58:58.977Z,8.45
2019-01-20T12:01:27.756Z,8.00
2019-01-20T12:03:59.838Z,8.63
2019-01-20T12:06:30.215Z,7.67
2019-01-20T12:09:04.571Z,8.63
2019-01-20T12:11:46.115Z,8.25
2019-01-20T12:14:15.005Z,8.33
2019-01-20T12:16:44.261Z,7.95
2019-01-20T12:19:18.011Z,9.28
2019-01-20T12:21:46.485Z,8.15
2019-01-20T12:24:15.319Z,9.00
2019-01-20T12:26:45.831Z,7.67
2019-01-20T12:29:14.748Z,8.63
2019-01-20T12:31:47.644Z,8.53
2019-01-20T12:34:16.729Z,7.47
2019-01-20T12:36:45.642Z,8.65
2019-01-20T12:39:14.475Z,8.23
2019-01-20T12:41:46.445Z,6.87
2019-01-20T12:44:15.256Z,8.18
2019-01-20T12:46:44.091Z,8.18
2019-01-20T12:49:14.356Z,8.20
2019-01-20T12:51:44.708Z,8.33
2019-01-20T12:54:15.389Z,7.08
2019-01-20T12:56:52.999Z,8.90
2019-01-20T12:59:17.648Z,7.83
2019-01-20T13:01:49.903Z,9.18
2019-01-20T13:04:19.758Z,8.13
2019-01-20T13:06:48.700Z,8.40
2019-01-20T13:09:17.886Z,8.45
2019-01-20T13:11:46.947Z,8.90
2019-01-20T13:14:18.835Z,8.80
2019-01-20T13:16:47.733Z,9.55
2019-01-20T13:19:26.673Z,8.68
2019-01-20T13:21:55.569Z,8.13
2019-01-20T13:24:27.733Z,8.68
2019-01-20T13:26:58.295Z,9.08
2019-01-20T13:29:29.827Z,8.53
2019-01-20T13:31:58.612Z,8.30
2019-01-20T13:34:27.641Z,9.03
2019-01-20T13:37:00.428Z,8.73
2019-01-20T13:39:34.747Z,8.10
2019-01-20T13:42:06.045Z,9.28
2019-01-20T13:44:36.289Z,7.97
2019-01-20T13:47:06.823Z,8.83
2019-01-20T13:49:35.784Z,7.33
2019-01-20T13:52:12.136Z,8.43
2019-01-20T13:54:42.239Z,9.83
2019-01-20T13:57:14.619Z,9.75
2019-01-20T13:59:43.773Z,8.90
2019-01-20T14:02:14.415Z,8.93
2019-01-20T14:04:51.878Z,10.43
2019-01-20T14:07:21.419Z,9.73
2019-01-20T14:09:51.289Z,8.90
2019-01-20T14:12:20.770Z,9.23
2019-01-20T14:14:53.866Z,8.50
2019-01-20T14:17:27.771Z,9.03
2019-01-20T14:19:58.570Z,8.98
2019-01-20T14:22:45.002Z,9.15
2019-01-20T14:25:16.584Z,8.58
2019-01-20T14:27:49.870Z,9.50
2019-01-20T14:30:25.708Z,8.95
2019-01-20T14:32:54.558Z,8.00
2019-01-20T14:35:28.090Z,8.48
2019-01-20T14:37:57.270Z,8.93
2019-01-20T14:40:28.074Z,7.97
2019-01-20T14:42:58.183Z,7.75
2019-01-20T14:45:32.250Z,7.70
2019-01-20T14:48:07.091Z,9.05
2019-01-20T14:50:38.927Z,9.50
2019-01-20T14:53:12.670Z,8.55
2019-01-20T14:55:45.540Z,9.53
2019-01-20T14:58:13.666Z,9.20
2019-01-20T15:00:42.532Z,10.48
2019-01-20T15:03:12.979Z,9.10
2019-01-20T15:05:42.101Z,9.75
2019-01-20T15:08:10.979Z,8.98
2019-01-20T15:10:41.803Z,9.20
2019-01-20T15:13:12.433Z,10.38
2019-01-20T15:15:44.448Z,8.20
2019-01-20T15:18:13.442Z,8.55
2019-01-20T15:20:49.377Z,9.88
2019-01-20T15:23:28.640Z,9.38
2019-01-20T15:26:07.041Z,10.75
2019-01-20T15:28:37.654Z,8.35
2019-01-20T15:31:06.574Z,9.45
2019-01-20T15:33:45.625Z,9.78
2019-01-20T15:36:14.746Z,9.98
2019-01-20T15:38:44.124Z,9.95
2019-01-20T15:41:28.197Z,10.48
2019-01-20T15:43:47.734Z,11.83
2019-01-20T15:46:19.153Z,10.50
2019-01-20T15:48:48.071Z,10.93
2019-01-20T15:51:25.112Z,10.23
2019-01-20T15:53:57.750Z,11.12
2019-01-20T15:56:34.038Z,11.88
2019-01-20T15:59:03.893Z,11.57
2019-01-20T16:01:32.471Z,11.18
2019-01-20T16:04:03.721Z,11.73
2019-01-20T16:06:33.669Z,12.00
2019-01-20T16:09:02.549Z,12.53
2019-01-20T16:11:47.464Z,13.05
2019-01-20T16:14:14.808Z,13.13
2019-01-20T16:16:46.634Z,12.90
2019-01-20T16:19:15.427Z,11.12
2019-01-20T16:21:51.095Z,11.45
2019-01-20T16:24:28.581Z,10.40
2019-01-20T16:27:01.007Z,11.12
2019-01-20T16:29:28.520Z,10.72
2019-01-20T16:31:57.741Z,11.08
2019-01-20T16:34:27.145Z,10.90
2019-01-20T16:36:58.965Z,11.00
2019-01-20T16:39:27.827Z,10.38
2019-01-20T16:41:56.722Z,11.05
2019-01-20T16:44:36.468Z,11.10
2019-01-20T16:47:06.188Z,11.97
2019-01-20T16:49:39.282Z,12.85
2019-01-20T16:52:10.766Z,12.95
2019-01-20T16:54:40.019Z,13.43
2019-01-20T16:57:09.400Z,11.93
2019-01-20T16:59:38.147Z,10.85
2019-01-20T17:02:07.971Z,12.28
2019-01-20T17:04:38.272Z,13.78
2019-01-20T17:07:13.576Z,13.32
2019-01-20T17:09:42.792Z,11.88
2019-01-20T17:12:12.044Z,14.28
2019-01-20T17:14:40.805Z,15.40
2019-01-20T17:17:14.899Z,14.00
2019-01-20T17:19:46.688Z,15.28
2019-01-20T17:22:17.321Z,16.10
2019-01-20T17:24:47.691Z,16.75
2019-01-20T17:27:22.906Z,16.02
2019-01-20T17:29:54.893Z,17.48
2019-01-20T17:32:28.149Z,19.23
2019-01-20T17:34:59.132Z,18.65
2019-01-20T17:37:28.562Z,15.95
2019-01-20T17:40:00.303Z,16.02
2019-01-20T17:42:36.926Z,15.60
2019-01-20T17:45:12.079Z,15.20
2019-01-20T17:47:46.713Z,15.63
2019-01-20T17:50:19.683Z,16.52
2019-01-20T17:52:48.591Z,16.62
2019-01-20T17:55:25.051Z,16.32
2019-01-20T17:57:53.980Z,13.48
2019-01-20T18:00:27.161Z,14.73
2019-01-20T18:02:58.171Z,14.70
2019-01-20T18:05:29.630Z,15.45
2019-01-20T18:07:58.814Z,14.10
2019-01-20T18:10:27.836Z,15.72
2019-01-20T18:13:02.721Z,15.25
2019-01-20T18:15:32.195Z,15.83
2019-01-20T18:18:05.917Z,15.08
2019-01-20T18:20:34.989Z,13.70
2019-01-20T18:23:09.245Z,13.08
2019-01-20T18:25:38.562Z,13.08
2019-01-20T18:28:08.446Z,15.18
2019-01-20T18:30:41.144Z,14.20
2019-01-20T18:33:12.677Z,13.80
2019-01-20T18:35:43.171Z,14.73
2019-01-20T18:38:12.150Z,14.60
2019-01-20T18:40:43.683Z,14.53
2019-01-20T18:43:12.704Z,14.55
2019-01-20T18:45:44.062Z,15.43
2019-01-20T18:48:16.009Z,15.53
2019-01-20T18:50:57.393Z,15.25
2019-01-20T18:53:28.317Z,15.28
2019-01-20T18:55:58.734Z,14.58
2019-01-20T18:58:30.482Z,15.08
2019-01-20T19:01:11.673Z,15.23
2019-01-20T19:03:41.885Z,13.55
2019-01-20T19:06:14.163Z,15.60
2019-01-20T19:08:43.218Z,14.00
2019-01-20T19:11:13.634Z,15.83
2019-01-20T19:13:54.368Z,14.70
2019-01-20T19:16:36.806Z,15.08
2019-01-20T19:19:05.700Z,14.58
2019-01-20T19:21:34.841Z,15.78
2019-01-20T19:24:11.172Z,15.23
2019-01-20T19:26:47.295Z,15.45
2019-01-20T19:29:16.179Z,14.73
2019-01-20T19:31:45.675Z,15.85
2019-01-20T19:34:18.362Z,15.25
2019-01-20T19:36:55.093Z,16.20
2019-01-20T19:39:22.179Z,20.00
2019-01-20T19:41:51.116Z,17.37
2019-01-20T19:44:20.546Z,18.70
2019-01-20T19:46:50.921Z,17.25
2019-01-20T19:49:22.739Z,17.17
2019-01-20T19:51:51.811Z,17.02
2019-01-20T19:54:23.441Z,17.05
2019-01-20T19:56:58.829Z,18.42
2019-01-20T19:59:40.090Z,17.45
2019-01-20T20:02:10.812Z,18.45
2019-01-20T20:04:40.325Z,16.55
2019-01-20T20:07:16.390Z,16.70
2019-01-20T20:09:52.996Z,15.93
2019-01-20T20:12:27.404Z,15.30
2019-01-20T20:15:01.627Z,15.68
2019-01-20T20:17:32.043Z,15.88
2019-01-20T20:20:01.851Z,18.35
2019-01-20T20:22:37.978Z,16.80
2019-01-20T20:25:05.761Z,17.32
2019-01-20T20:27:35.288Z,15.78
2019-01-20T20:30:15.832Z,15.00
2019-01-20T20:32:44.681Z,14.23
2019-01-20T20:35:15.316Z,15.05
2019-01-20T20:37:46.883Z,14.58
2019-01-20T20:40:22.516Z,14.65
2019-01-20T20:42:58.139Z,13.18
2019-01-20T20:45:27.629Z,13.98
2019-01-20T20:47:56.477Z,14.18
2019-01-20T20:50:29.852Z,13.65
2019-01-20T20:53:06.680Z,13.90
2019-01-20T20:55:41.534Z,13.62
2019-01-20T20:58:06.139Z,13.93
2019-01-20T21:00:37.956Z,13.93
2019-01-20T21:03:10.186Z,15.55
2019-01-20T21:05:39.054Z,14.15
2019-01-20T21:08:11.602Z,15.55
2019-01-20T21:10:40.450Z,14.15
2019-01-20T21:13:10.881Z,13.32
2019-01-20T21:15:42.733Z,13.60
2019-01-20T21:18:11.560Z,13.60
2019-01-20T21:20:42.885Z,12.90
2019-01-20T21:23:12.589Z,14.98
2019-01-20T21:25:41.756Z,13.70
2019-01-20T21:28:10.625Z,14.87
2019-01-20T21:30:39.434Z,14.03
2019-01-20T21:33:13.901Z,13.93
2019-01-20T21:35:46.312Z,14.10
2019-01-20T21:38:17.744Z,12.80
2019-01-20T21:40:46.473Z,12.90
2019-01-20T21:43:15.558Z,13.32
2019-01-20T21:45:45.721Z,12.13
2019-01-20T21:48:14.515Z,14.13
2019-01-20T21:50:44.986Z,12.18
2019-01-20T21:53:13.735Z,13.83
2019-01-20T21:55:44.673Z,12.15
2019-01-20T21:58:15.179Z,12.50
2019-01-20T22:00:45.500Z,13.35
2019-01-20T22:03:15.360Z,12.68
2019-01-20T22:05:52.810Z,12.33
2019-01-20T22:08:28.774Z,12.37
2019-01-20T22:10:57.840Z,12.28
2019-01-20T22:13:26.701Z,12.65
2019-01-20T22:16:02.985Z,14.03
2019-01-20T22:18:32.085Z,13.25
2019-01-20T22:21:04.156Z,13.00
2019-01-20T22:23:35.179Z,13.50
2019-01-20T22:26:03.960Z,13.78
2019-01-20T22:28:32.806Z,12.15
2019-01-20T22:31:04.837Z,13.43
2019-01-20T22:33:34.588Z,13.38
2019-01-20T22:36:03.594Z,13.60
2019-01-20T22:38:32.732Z,12.93
2019-01-20T22:41:04.249Z,12.75
2019-01-20T22:43:33.272Z,11.20
2019-01-20T22:46:02.913Z,12.33
2019-01-20T22:48:31.750Z,12.18
2019-01-20T22:51:03.253Z,12.25
2019-01-20T22:53:32.119Z,12.70
2019-01-20T22:56:00.876Z,12.82
2019-01-20T22:58:31.254Z,11.93
2019-01-20T23:01:01.436Z,12.80
2019-01-20T23:03:33.178Z,11.30
2019-01-20T23:06:02.979Z,11.33
2019-01-20T23:08:31.745Z,11.30
2019-01-20T23:11:01.143Z,11.80
2019-01-20T23:13:30.396Z,11.70
2019-01-20T23:16:00.631Z,12.25
2019-01-20T23:18:29.485Z,12.50
2019-01-20T23:20:58.342Z,10.82
2019-01-20T23:23:27.269Z,12.65
2019-01-20T23:25:57.166Z,12.03
2019-01-20T23:28:30.288Z,12.30
2019-01-20T23:31:00.971Z,11.22
2019-01-20T23:33:29.506Z,11.05
2019-01-20T23:35:58.731Z,11.78
2019-01-20T23:38:30.295Z,12.15
2019-01-20T23:40:59.289Z,11.57
2019-01-20T23:43:28.275Z,11.12
2019-01-20T23:45:57.050Z,11.15
2019-01-20T23:48:26.015Z,11.33
2019-01-20T23:50:54.951Z,11.03
2019-01-20T23:53:23.782Z,11.68
2019-01-20T23:55:52.555Z,11.45
2019-01-20T23:58:21.389Z,10.72
